sensor_id;sensor_type;location;lat;lon;timestamp;P1;durP1;ratioP1;P2;durP2;ratioP2
4857;SDS011;58975;51.978;8.472;2023-02-28T00:01:20;6.43;;;3.10;;
4857;SDS011;58975;51.978;8.472;2023-02-28T00:06:16;6.95;;;2.85;;
4857;SDS011;58975;51.978;8.472;2023-02-28T00:11:14;5.95;;;2.85;;
4857;SDS011;58975;51.978;8.472;2023-02-28T00:16:12;5.20;;;3.17;;
4857;SDS011;58975;51.978;8.472;2023-02-28T00:21:11;9.55;;;3.25;;
4857;SDS011;58975;51.978;8.472;2023-02-28T00:26:07;10.57;;;3.35;;
4857;SDS011;58975;51.978;8.472;2023-02-28T00:31:03;8.32;;;3.70;;
4857;SDS011;58975;51.978;8.472;2023-02-28T00:36:01;6.45;;;3.35;;
4857;SDS011;58975;51.978;8.472;2023-02-28T00:41:00;9.95;;;3.67;;
4857;SDS011;58975;51.978;8.472;2023-02-28T00:46:01;9.77;;;4.38;;
4857;SDS011;58975;51.978;8.472;2023-02-28T00:50:58;7.57;;;3.33;;
4857;SDS011;58975;51.978;8.472;2023-02-28T00:55:55;7.65;;;3.17;;
4857;SDS011;58975;51.978;8.472;2023-02-28T01:00:52;6.35;;;2.75;;
4857;SDS011;58975;51.978;8.472;2023-02-28T01:05:50;6.00;;;3.23;;
4857;SDS011;58975;51.978;8.472;2023-02-28T01:10:46;8.77;;;3.53;;
4857;SDS011;58975;51.978;8.472;2023-02-28T01:15:47;8.90;;;3.17;;
4857;SDS011;58975;51.978;8.472;2023-02-28T01:20:47;7.38;;;3.10;;
4857;SDS011;58975;51.978;8.472;2023-02-28T01:25:44;7.15;;;2.70;;
4857;SDS011;58975;51.978;8.472;2023-02-28T01:30:41;4.85;;;1.88;;
4857;SDS011;58975;51.978;8.472;2023-02-28T01:35:38;4.93;;;2.58;;
4857;SDS011;58975;51.978;8.472;2023-02-28T01:40:34;6.43;;;2.40;;
4857;SDS011;58975;51.978;8.472;2023-02-28T01:45:31;2.63;;;2.33;;
4857;SDS011;58975;51.978;8.472;2023-02-28T01:50:31;11.52;;;2.30;;
4857;SDS011;58975;51.978;8.472;2023-02-28T01:55:34;9.82;;;3.00;;
4857;SDS011;58975;51.978;8.472;2023-02-28T02:00:31;3.00;;;2.13;;
4857;SDS011;58975;51.978;8.472;2023-02-28T02:05:29;5.97;;;2.53;;
4857;SDS011;58975;51.978;8.472;2023-02-28T02:10:31;6.50;;;2.42;;
4857;SDS011;58975;51.978;8.472;2023-02-28T02:36:23;4.20;;;2.40;;
4857;SDS011;58975;51.978;8.472;2023-02-28T02:46:45;8.35;;;3.03;;
4857;SDS011;58975;51.978;8.472;2023-02-28T02:51:44;7.43;;;3.03;;
4857;SDS011;58975;51.978;8.472;2023-02-28T02:56:44;8.43;;;2.85;;
4857;SDS011;58975;51.978;8.472;2023-02-28T03:01:43;6.57;;;2.55;;
4857;SDS011;58975;51.978;8.472;2023-02-28T03:06:39;9.30;;;2.85;;
4857;SDS011;58975;51.978;8.472;2023-02-28T03:11:36;5.95;;;2.83;;
4857;SDS011;58975;51.978;8.472;2023-02-28T03:27:07;4.88;;;3.38;;
4857;SDS011;58975;51.978;8.472;2023-02-28T03:32:29;7.13;;;3.10;;
4857;SDS011;58975;51.978;8.472;2023-02-28T03:37:38;7.65;;;3.40;;
4857;SDS011;58975;51.978;8.472;2023-02-28T03:42:38;5.88;;;2.80;;
4857;SDS011;58975;51.978;8.472;2023-02-28T03:47:39;4.50;;;2.75;;
4857;SDS011;58975;51.978;8.472;2023-02-28T03:52:45;6.05;;;2.83;;
4857;SDS011;58975;51.978;8.472;2023-02-28T04:03:21;5.57;;;2.97;;
4857;SDS011;58975;51.978;8.472;2023-02-28T04:08:17;7.00;;;3.63;;
4857;SDS011;58975;51.978;8.472;2023-02-28T04:13:14;8.07;;;3.03;;
4857;SDS011;58975;51.978;8.472;2023-02-28T04:18:10;6.20;;;3.53;;
4857;SDS011;58975;51.978;8.472;2023-02-28T04:23:07;6.78;;;3.40;;
4857;SDS011;58975;51.978;8.472;2023-02-28T04:28:03;8.80;;;3.22;;
4857;SDS011;58975;51.978;8.472;2023-02-28T04:33:00;6.45;;;3.22;;
4857;SDS011;58975;51.978;8.472;2023-02-28T04:37:56;6.57;;;3.60;;
4857;SDS011;58975;51.978;8.472;2023-02-28T04:42:52;6.65;;;3.72;;
4857;SDS011;58975;51.978;8.472;2023-02-28T04:47:49;7.40;;;3.42;;
4857;SDS011;58975;51.978;8.472;2023-02-28T04:52:45;6.82;;;2.97;;
4857;SDS011;58975;51.978;8.472;2023-02-28T04:57:42;7.38;;;3.95;;
4857;SDS011;58975;51.978;8.472;2023-02-28T05:02:38;6.80;;;3.80;;
4857;SDS011;58975;51.978;8.472;2023-02-28T05:07:35;7.00;;;3.83;;
4857;SDS011;58975;51.978;8.472;2023-02-28T05:12:31;8.25;;;3.88;;
4857;SDS011;58975;51.978;8.472;2023-02-28T05:17:28;7.45;;;3.83;;
4857;SDS011;58975;51.978;8.472;2023-02-28T05:22:24;11.45;;;4.18;;
4857;SDS011;58975;51.978;8.472;2023-02-28T05:27:21;6.18;;;3.58;;
4857;SDS011;58975;51.978;8.472;2023-02-28T05:32:17;6.80;;;4.10;;
4857;SDS011;58975;51.978;8.472;2023-02-28T05:37:14;13.43;;;5.35;;
4857;SDS011;58975;51.978;8.472;2023-02-28T05:42:11;11.35;;;5.30;;
4857;SDS011;58975;51.978;8.472;2023-02-28T05:47:08;13.15;;;6.30;;
4857;SDS011;58975;51.978;8.472;2023-02-28T05:52:04;15.20;;;5.85;;
4857;SDS011;58975;51.978;8.472;2023-02-28T05:57:01;18.95;;;5.88;;
4857;SDS011;58975;51.978;8.472;2023-02-28T06:01:59;9.85;;;4.95;;
4857;SDS011;58975;51.978;8.472;2023-02-28T06:06:56;10.38;;;4.70;;
4857;SDS011;58975;51.978;8.472;2023-02-28T06:11:53;13.13;;;5.03;;
4857;SDS011;58975;51.978;8.472;2023-02-28T06:16:50;14.02;;;5.53;;
4857;SDS011;58975;51.978;8.472;2023-02-28T06:21:49;12.73;;;4.45;;
4857;SDS011;58975;51.978;8.472;2023-02-28T06:26:48;14.40;;;5.63;;
4857;SDS011;58975;51.978;8.472;2023-02-28T06:31:45;16.83;;;6.38;;
4857;SDS011;58975;51.978;8.472;2023-02-28T06:36:42;16.27;;;6.63;;
4857;SDS011;58975;51.978;8.472;2023-02-28T06:41:39;17.67;;;7.00;;
4857;SDS011;58975;51.978;8.472;2023-02-28T06:46:49;13.30;;;5.28;;
4857;SDS011;58975;51.978;8.472;2023-02-28T06:51:46;12.80;;;5.72;;
4857;SDS011;58975;51.978;8.472;2023-02-28T06:56:42;13.63;;;5.70;;
4857;SDS011;58975;51.978;8.472;2023-02-28T07:01:39;9.20;;;4.57;;
4857;SDS011;58975;51.978;8.472;2023-02-28T07:06:36;12.70;;;5.45;;
4857;SDS011;58975;51.978;8.472;2023-02-28T07:11:32;9.02;;;4.45;;
4857;SDS011;58975;51.978;8.472;2023-02-28T07:16:28;9.25;;;3.92;;
4857;SDS011;58975;51.978;8.472;2023-02-28T07:21:25;11.00;;;4.60;;
4857;SDS011;58975;51.978;8.472;2023-02-28T07:26:22;7.18;;;3.50;;
4857;SDS011;58975;51.978;8.472;2023-02-28T07:31:18;6.95;;;3.50;;
4857;SDS011;58975;51.978;8.472;2023-02-28T07:36:16;6.68;;;3.65;;
4857;SDS011;58975;51.978;8.472;2023-02-28T07:41:15;6.43;;;3.40;;
4857;SDS011;58975;51.978;8.472;2023-02-28T07:46:14;12.60;;;4.57;;
4857;SDS011;58975;51.978;8.472;2023-02-28T07:51:11;7.10;;;4.18;;
4857;SDS011;58975;51.978;8.472;2023-02-28T07:56:08;6.28;;;3.35;;
4857;SDS011;58975;51.978;8.472;2023-02-28T08:01:08;6.28;;;3.53;;
4857;SDS011;58975;51.978;8.472;2023-02-28T08:06:06;8.02;;;3.10;;
4857;SDS011;58975;51.978;8.472;2023-02-28T08:11:04;11.43;;;4.60;;
4857;SDS011;58975;51.978;8.472;2023-02-28T08:16:01;8.73;;;4.38;;
4857;SDS011;58975;51.978;8.472;2023-02-28T08:20:58;8.27;;;3.10;;
4857;SDS011;58975;51.978;8.472;2023-02-28T08:25:55;7.82;;;3.10;;
4857;SDS011;58975;51.978;8.472;2023-02-28T08:30:52;3.55;;;2.60;;
4857;SDS011;58975;51.978;8.472;2023-02-28T08:35:52;9.48;;;3.17;;
4857;SDS011;58975;51.978;8.472;2023-02-28T08:40:56;3.25;;;2.80;;
4857;SDS011;58975;51.978;8.472;2023-02-28T08:45:54;2.90;;;2.35;;
4857;SDS011;58975;51.978;8.472;2023-02-28T08:50:57;5.43;;;2.00;;
4857;SDS011;58975;51.978;8.472;2023-02-28T08:56:04;3.55;;;2.00;;
4857;SDS011;58975;51.978;8.472;2023-02-28T09:01:11;2.33;;;1.70;;
4857;SDS011;58975;51.978;8.472;2023-02-28T09:06:10;4.40;;;1.77;;
4857;SDS011;58975;51.978;8.472;2023-02-28T09:11:08;4.15;;;2.20;;
4857;SDS011;58975;51.978;8.472;2023-02-28T09:16:06;1.40;;;0.95;;
4857;SDS011;58975;51.978;8.472;2023-02-28T09:21:07;1.95;;;1.45;;
4857;SDS011;58975;51.978;8.472;2023-02-28T09:26:04;1.67;;;1.27;;
4857;SDS011;58975;51.978;8.472;2023-02-28T09:31:01;1.88;;;1.58;;
4857;SDS011;58975;51.978;8.472;2023-02-28T09:41:00;6.50;;;1.20;;
4857;SDS011;58975;51.978;8.472;2023-02-28T09:46:00;3.50;;;1.38;;
4857;SDS011;58975;51.978;8.472;2023-02-28T09:56:24;4.18;;;1.65;;
4857;SDS011;58975;51.978;8.472;2023-02-28T10:06:56;2.08;;;1.58;;
4857;SDS011;58975;51.978;8.472;2023-02-28T10:11:54;4.05;;;1.85;;
4857;SDS011;58975;51.978;8.472;2023-02-28T10:16:57;3.55;;;2.15;;
4857;SDS011;58975;51.978;8.472;2023-02-28T10:22:11;5.40;;;2.58;;
4857;SDS011;58975;51.978;8.472;2023-02-28T10:27:29;3.80;;;1.20;;
4857;SDS011;58975;51.978;8.472;2023-02-28T10:32:27;2.45;;;1.35;;
4857;SDS011;58975;51.978;8.472;2023-02-28T10:37:27;2.90;;;1.67;;
4857;SDS011;58975;51.978;8.472;2023-02-28T10:42:28;2.28;;;1.60;;
4857;SDS011;58975;51.978;8.472;2023-02-28T10:47:25;1.88;;;1.42;;
4857;SDS011;58975;51.978;8.472;2023-02-28T10:52:40;2.15;;;1.20;;
4857;SDS011;58975;51.978;8.472;2023-02-28T10:57:37;2.75;;;1.90;;
4857;SDS011;58975;51.978;8.472;2023-02-28T11:02:34;4.25;;;1.40;;
4857;SDS011;58975;51.978;8.472;2023-02-28T11:07:33;4.97;;;1.42;;
4857;SDS011;58975;51.978;8.472;2023-02-28T11:12:47;4.18;;;1.70;;
4857;SDS011;58975;51.978;8.472;2023-02-28T11:18:00;2.15;;;1.00;;
4857;SDS011;58975;51.978;8.472;2023-02-28T11:23:11;4.07;;;1.13;;
4857;SDS011;58975;51.978;8.472;2023-02-28T11:28:29;1.48;;;0.85;;
4857;SDS011;58975;51.978;8.472;2023-02-28T11:33:28;3.55;;;0.60;;
4857;SDS011;58975;51.978;8.472;2023-02-28T11:43:30;0.98;;;0.80;;
4857;SDS011;58975;51.978;8.472;2023-02-28T11:48:51;1.38;;;0.80;;
4857;SDS011;58975;51.978;8.472;2023-02-28T12:04:42;2.88;;;1.17;;
4857;SDS011;58975;51.978;8.472;2023-02-28T12:09:52;1.05;;;0.93;;
4857;SDS011;58975;51.978;8.472;2023-02-28T12:20:33;4.85;;;0.95;;
4857;SDS011;58975;51.978;8.472;2023-02-28T12:31:00;2.40;;;1.20;;
4857;SDS011;58975;51.978;8.472;2023-02-28T12:36:05;1.15;;;0.95;;
4857;SDS011;58975;51.978;8.472;2023-02-28T12:41:10;1.52;;;1.42;;
4857;SDS011;58975;51.978;8.472;2023-02-28T12:51:16;3.05;;;1.58;;
4857;SDS011;58975;51.978;8.472;2023-02-28T12:56:24;4.15;;;1.50;;
4857;SDS011;58975;51.978;8.472;2023-02-28T13:06:52;1.42;;;1.20;;
4857;SDS011;58975;51.978;8.472;2023-02-28T13:12:00;2.08;;;1.20;;
4857;SDS011;58975;51.978;8.472;2023-02-28T13:16:58;5.28;;;1.23;;
4857;SDS011;58975;51.978;8.472;2023-02-28T13:21:55;2.40;;;1.08;;
4857;SDS011;58975;51.978;8.472;2023-02-28T13:47:22;2.50;;;1.52;;
4857;SDS011;58975;51.978;8.472;2023-02-28T13:52:21;3.03;;;1.70;;
4857;SDS011;58975;51.978;8.472;2023-02-28T13:57:35;2.22;;;0.95;;
4857;SDS011;58975;51.978;8.472;2023-02-28T14:08:05;2.58;;;1.40;;
4857;SDS011;58975;51.978;8.472;2023-02-28T14:23:31;2.08;;;1.23;;
4857;SDS011;58975;51.978;8.472;2023-02-28T14:28:47;2.65;;;1.67;;
4857;SDS011;58975;51.978;8.472;2023-02-28T14:39:11;8.05;;;1.55;;
4857;SDS011;58975;51.978;8.472;2023-02-28T14:49:15;4.03;;;1.73;;
4857;SDS011;58975;51.978;8.472;2023-02-28T14:54:22;1.30;;;1.20;;
4857;SDS011;58975;51.978;8.472;2023-02-28T14:59:37;5.13;;;1.63;;
4857;SDS011;58975;51.978;8.472;2023-02-28T15:04:35;2.47;;;1.50;;
4857;SDS011;58975;51.978;8.472;2023-02-28T15:09:31;3.10;;;1.33;;
4857;SDS011;58975;51.978;8.472;2023-02-28T15:14:28;1.80;;;1.02;;
4857;SDS011;58975;51.978;8.472;2023-02-28T15:19:26;3.47;;;1.73;;
4857;SDS011;58975;51.978;8.472;2023-02-28T15:24:37;2.47;;;1.48;;
4857;SDS011;58975;51.978;8.472;2023-02-28T15:29:42;2.53;;;1.40;;
4857;SDS011;58975;51.978;8.472;2023-02-28T15:34:43;3.85;;;1.45;;
4857;SDS011;58975;51.978;8.472;2023-02-28T15:39:43;3.40;;;1.33;;
4857;SDS011;58975;51.978;8.472;2023-02-28T15:44:40;3.17;;;1.45;;
4857;SDS011;58975;51.978;8.472;2023-02-28T15:49:44;3.55;;;1.55;;
4857;SDS011;58975;51.978;8.472;2023-02-28T15:54:43;3.90;;;1.60;;
4857;SDS011;58975;51.978;8.472;2023-02-28T15:59:44;2.45;;;1.55;;
4857;SDS011;58975;51.978;8.472;2023-02-28T16:05:00;5.50;;;1.80;;
4857;SDS011;58975;51.978;8.472;2023-02-28T16:09:56;7.30;;;2.13;;
4857;SDS011;58975;51.978;8.472;2023-02-28T16:14:54;3.70;;;1.80;;
4857;SDS011;58975;51.978;8.472;2023-02-28T16:19:53;7.30;;;1.55;;
4857;SDS011;58975;51.978;8.472;2023-02-28T16:24:50;3.17;;;1.70;;
4857;SDS011;58975;51.978;8.472;2023-02-28T16:29:47;4.93;;;2.00;;
4857;SDS011;58975;51.978;8.472;2023-02-28T16:34:44;4.05;;;1.80;;
4857;SDS011;58975;51.978;8.472;2023-02-28T16:39:41;3.22;;;1.70;;
4857;SDS011;58975;51.978;8.472;2023-02-28T16:44:38;3.72;;;1.80;;
4857;SDS011;58975;51.978;8.472;2023-02-28T16:49:36;6.35;;;1.95;;
4857;SDS011;58975;51.978;8.472;2023-02-28T16:54:32;2.95;;;1.88;;
4857;SDS011;58975;51.978;8.472;2023-02-28T16:59:29;4.38;;;1.95;;
4857;SDS011;58975;51.978;8.472;2023-02-28T17:04:25;7.75;;;2.05;;
4857;SDS011;58975;51.978;8.472;2023-02-28T17:09:23;2.88;;;1.95;;
4857;SDS011;58975;51.978;8.472;2023-02-28T17:14:37;4.18;;;1.60;;
4857;SDS011;58975;51.978;8.472;2023-02-28T17:19:33;6.30;;;2.00;;
4857;SDS011;58975;51.978;8.472;2023-02-28T17:24:32;3.90;;;1.85;;
4857;SDS011;58975;51.978;8.472;2023-02-28T17:29:28;6.50;;;1.90;;
4857;SDS011;58975;51.978;8.472;2023-02-28T17:34:25;5.90;;;2.22;;
4857;SDS011;58975;51.978;8.472;2023-02-28T17:39:21;4.13;;;1.98;;
4857;SDS011;58975;51.978;8.472;2023-02-28T17:44:21;2.05;;;1.42;;
4857;SDS011;58975;51.978;8.472;2023-02-28T17:49:18;3.60;;;2.05;;
4857;SDS011;58975;51.978;8.472;2023-02-28T17:54:15;4.05;;;1.90;;
4857;SDS011;58975;51.978;8.472;2023-02-28T17:59:14;9.10;;;2.22;;
4857;SDS011;58975;51.978;8.472;2023-02-28T18:04:10;3.20;;;2.67;;
4857;SDS011;58975;51.978;8.472;2023-02-28T18:09:08;6.75;;;2.13;;
4857;SDS011;58975;51.978;8.472;2023-02-28T18:14:04;5.93;;;2.25;;
4857;SDS011;58975;51.978;8.472;2023-02-28T18:19:01;3.20;;;1.90;;
4857;SDS011;58975;51.978;8.472;2023-02-28T18:24:00;3.42;;;2.22;;
4857;SDS011;58975;51.978;8.472;2023-02-28T18:28:57;6.60;;;2.50;;
4857;SDS011;58975;51.978;8.472;2023-02-28T18:33:53;3.80;;;2.22;;
4857;SDS011;58975;51.978;8.472;2023-02-28T18:38:50;5.68;;;2.60;;
4857;SDS011;58975;51.978;8.472;2023-02-28T18:43:47;6.15;;;2.63;;
4857;SDS011;58975;51.978;8.472;2023-02-28T18:48:45;11.27;;;3.30;;
4857;SDS011;58975;51.978;8.472;2023-02-28T18:53:43;6.65;;;2.78;;
4857;SDS011;58975;51.978;8.472;2023-02-28T18:58:40;4.32;;;2.33;;
4857;SDS011;58975;51.978;8.472;2023-02-28T19:03:36;7.28;;;2.47;;
4857;SDS011;58975;51.978;8.472;2023-02-28T19:08:33;4.47;;;2.78;;
4857;SDS011;58975;51.978;8.472;2023-02-28T19:13:30;4.95;;;3.00;;
4857;SDS011;58975;51.978;8.472;2023-02-28T19:18:26;3.75;;;2.80;;
4857;SDS011;58975;51.978;8.472;2023-02-28T19:23:23;6.35;;;2.97;;
4857;SDS011;58975;51.978;8.472;2023-02-28T19:28:20;4.70;;;2.55;;
4857;SDS011;58975;51.978;8.472;2023-02-28T19:33:16;3.78;;;2.15;;
4857;SDS011;58975;51.978;8.472;2023-02-28T19:38:14;3.72;;;2.42;;
4857;SDS011;58975;51.978;8.472;2023-02-28T19:43:10;3.55;;;2.78;;
4857;SDS011;58975;51.978;8.472;2023-02-28T19:48:07;4.28;;;2.60;;
4857;SDS011;58975;51.978;8.472;2023-02-28T19:53:04;6.03;;;2.90;;
4857;SDS011;58975;51.978;8.472;2023-02-28T19:58:01;8.98;;;3.83;;
4857;SDS011;58975;51.978;8.472;2023-02-28T20:02:57;7.47;;;3.47;;
4857;SDS011;58975;51.978;8.472;2023-02-28T20:07:54;7.22;;;3.75;;
4857;SDS011;58975;51.978;8.472;2023-02-28T20:12:51;6.15;;;3.67;;
4857;SDS011;58975;51.978;8.472;2023-02-28T20:17:47;9.88;;;4.07;;
4857;SDS011;58975;51.978;8.472;2023-02-28T20:22:44;8.77;;;4.03;;
4857;SDS011;58975;51.978;8.472;2023-02-28T20:27:40;12.82;;;5.35;;
4857;SDS011;58975;51.978;8.472;2023-02-28T20:32:36;9.73;;;3.70;;
4857;SDS011;58975;51.978;8.472;2023-02-28T20:37:34;8.20;;;3.97;;
4857;SDS011;58975;51.978;8.472;2023-02-28T20:42:31;12.57;;;5.20;;
4857;SDS011;58975;51.978;8.472;2023-02-28T20:47:27;12.07;;;5.97;;
4857;SDS011;58975;51.978;8.472;2023-02-28T20:52:24;18.40;;;6.47;;
4857;SDS011;58975;51.978;8.472;2023-02-28T20:57:20;18.55;;;6.72;;
4857;SDS011;58975;51.978;8.472;2023-02-28T21:02:17;13.13;;;5.78;;
4857;SDS011;58975;51.978;8.472;2023-02-28T21:07:14;13.82;;;6.43;;
4857;SDS011;58975;51.978;8.472;2023-02-28T21:12:10;15.18;;;6.25;;
4857;SDS011;58975;51.978;8.472;2023-02-28T21:17:07;15.90;;;7.05;;
4857;SDS011;58975;51.978;8.472;2023-02-28T21:22:05;24.17;;;8.20;;
4857;SDS011;58975;51.978;8.472;2023-02-28T21:27:01;24.00;;;8.18;;
4857;SDS011;58975;51.978;8.472;2023-02-28T21:31:58;17.35;;;7.72;;
4857;SDS011;58975;51.978;8.472;2023-02-28T21:36:55;17.58;;;8.00;;
4857;SDS011;58975;51.978;8.472;2023-02-28T21:41:52;14.52;;;7.00;;
4857;SDS011;58975;51.978;8.472;2023-02-28T21:46:49;15.45;;;7.53;;
4857;SDS011;58975;51.978;8.472;2023-02-28T21:51:50;14.25;;;6.82;;
4857;SDS011;58975;51.978;8.472;2023-02-28T21:56:46;18.52;;;7.57;;
4857;SDS011;58975;51.978;8.472;2023-02-28T22:01:47;16.73;;;6.82;;
4857;SDS011;58975;51.978;8.472;2023-02-28T22:06:46;14.32;;;6.70;;
4857;SDS011;58975;51.978;8.472;2023-02-28T22:11:44;12.48;;;7.07;;
4857;SDS011;58975;51.978;8.472;2023-02-28T22:16:41;12.65;;;6.43;;
4857;SDS011;58975;51.978;8.472;2023-02-28T22:26:49;8.93;;;4.40;;
4857;SDS011;58975;51.978;8.472;2023-02-28T22:31:46;15.15;;;6.65;;
4857;SDS011;58975;51.978;8.472;2023-02-28T22:36:43;16.33;;;7.60;;
4857;SDS011;58975;51.978;8.472;2023-02-28T22:41:39;15.85;;;6.72;;
4857;SDS011;58975;51.978;8.472;2023-02-28T22:46:35;15.88;;;8.65;;
4857;SDS011;58975;51.978;8.472;2023-02-28T22:51:32;13.38;;;7.55;;
4857;SDS011;58975;51.978;8.472;2023-02-28T22:56:29;19.80;;;8.27;;
4857;SDS011;58975;51.978;8.472;2023-02-28T23:01:28;33.47;;;12.40;;
4857;SDS011;58975;51.978;8.472;2023-02-28T23:06:27;15.20;;;6.50;;
4857;SDS011;58975;51.978;8.472;2023-02-28T23:11:33;12.25;;;5.53;;
4857;SDS011;58975;51.978;8.472;2023-02-28T23:16:45;14.10;;;6.03;;
4857;SDS011;58975;51.978;8.472;2023-02-28T23:21:42;13.82;;;6.15;;
4857;SDS011;58975;51.978;8.472;2023-02-28T23:26:41;10.88;;;5.43;;
4857;SDS011;58975;51.978;8.472;2023-02-28T23:31:40;12.90;;;6.32;;
4857;SDS011;58975;51.978;8.472;2023-02-28T23:36:37;11.82;;;5.00;;
4857;SDS011;58975;51.978;8.472;2023-02-28T23:41:34;9.98;;;4.57;;
4857;SDS011;58975;51.978;8.472;2023-02-28T23:46:30;8.35;;;5.07;;
4857;SDS011;58975;51.978;8.472;2023-02-28T23:51:27;12.18;;;5.68;;
4857;SDS011;58975;51.978;8.472;2023-02-28T23:56:24;10.23;;;5.13;;
